Time;durP1;ratioP1;P1;durP2;ratioP2;P2;SDS_P1;SDS_P2;PMS_P1;PMS_P2;Temp;Humidity;BMP_temperature;BMP_pressure;BME280_temperature;BME280_humidity;BME280_pressure;Samples;Min_cycle;Max_cycle;Signal;HPM_P1;HPM_P2
2023/01/29 00:02:40;;;;;;;4.38;3.20;;;;;;;;;;5130434;27;20062;-72
2023/01/29 00:05:11;;;;;;;5.57;3.85;;;;;;;;;;5103670;27;20063;-72
2023/01/29 00:07:57;;;;;;;7.30;3.55;;;;;;;;;;5114800;27;20441;-73
2023/01/29 00:10:27;;;;;;;5.00;3.90;;;;;;;;;;5116522;27;20097;-73
2023/01/29 00:12:57;;;;;;;7.60;4.00;;;;;;;;;;5115951;27;20066;-73
2023/01/29 00:15:27;;;;;;;4.70;3.65;;;;;;;;;;5116017;27;20047;-74
2023/01/29 00:17:58;;;;;;;4.25;3.63;;;;;;;;;;5115508;27;20043;-73
2023/01/29 00:20:28;;;;;;;8.43;4.05;;;;;;;;;;5113678;27;20094;-75
2023/01/29 00:22:58;;;;;;;7.20;3.65;;;;;;;;;;5117084;27;20046;-75
2023/01/29 00:25:28;;;;;;;5.57;3.80;;;;;;;;;;5113105;27;20498;-72
2023/01/29 00:27:58;;;;;;;6.68;3.97;;;;;;;;;;5116230;27;20039;-72
2023/01/29 00:30:31;;;;;;;6.03;4.00;;;;;;;;;;5113972;27;20391;-73
2023/01/29 00:33:01;;;;;;;4.10;3.58;;;;;;;;;;5116033;27;20047;-73
2023/01/29 00:35:31;;;;;;;6.13;3.70;;;;;;;;;;5112491;27;20054;-74
2023/01/29 00:38:06;;;;;;;5.47;3.88;;;;;;;;;;5115291;27;20031;-73
2023/01/29 00:46:30;;;;;;;7.05;3.85;;;;;;;;;;5113299;27;20047;-74
2023/01/29 00:49:00;;;;;;;6.43;4.32;;;;;;;;;;5115647;27;20039;-73
2023/01/29 00:51:32;;;;;;;6.63;3.72;;;;;;;;;;5116392;27;20540;-73
2023/01/29 00:54:05;;;;;;;8.38;3.83;;;;;;;;;;5111858;27;20040;-73
2023/01/29 00:56:36;;;;;;;7.82;4.38;;;;;;;;;;5115764;27;20047;-72
2023/01/29 00:59:07;;;;;;;9.38;4.72;;;;;;;;;;5114105;27;20054;-73
2023/01/29 01:04:29;;;;;;;9.32;4.88;;;;;;;;;;5114280;27;20043;-73
2023/01/29 01:07:01;;;;;;;7.75;4.25;;;;;;;;;;5113459;28;20608;-74
2023/01/29 01:12:25;;;;;;;10.75;4.60;;;;;;;;;;5113247;28;20048;-73
2023/01/29 01:14:55;;;;;;;8.77;4.35;;;;;;;;;;5115821;28;20043;-72
2023/01/29 01:17:25;;;;;;;6.60;4.28;;;;;;;;;;5113367;28;20039;-73
2023/01/29 01:19:57;;;;;;;6.53;4.00;;;;;;;;;;5113426;28;20571;-73
2023/01/29 01:22:28;;;;;;;7.22;4.60;;;;;;;;;;5116311;28;20062;-73
2023/01/29 01:24:58;;;;;;;11.00;5.35;;;;;;;;;;5120114;27;20452;-74
2023/01/29 01:27:28;;;;;;;9.80;4.80;;;;;;;;;;5118595;27;20051;-73
2023/01/29 01:29:59;;;;;;;11.18;4.38;;;;;;;;;;5119070;27;20074;-74
2023/01/29 01:32:29;;;;;;;8.75;4.40;;;;;;;;;;5118709;27;20425;-73
2023/01/29 01:35:01;;;;;;;4.88;4.30;;;;;;;;;;5120623;27;20039;-73
2023/01/29 01:37:32;;;;;;;6.45;4.95;;;;;;;;;;5120677;27;20046;-73
2023/01/29 01:40:16;;;;;;;10.38;5.45;;;;;;;;;;5118112;27;20528;-74
2023/01/29 01:42:55;;;;;;;10.32;6.78;;;;;;;;;;5117351;27;20521;-73
2023/01/29 01:45:30;;;;;;;12.20;7.18;;;;;;;;;;5117376;27;20066;-73
2023/01/29 01:48:01;;;;;;;;;;;;;;;;;;5119479;27;20497;-73
2023/01/29 01:50:53;;;;;;;9.98;7.18;;;;;;;;;;5119980;27;19919;-75
2023/01/29 01:53:39;;;;;;;9.77;7.32;;;;;;;;;;5114708;27;20044;-73
2023/01/29 01:56:19;;;;;;;11.68;8.55;;;;;;;;;;5111000;27;20051;-74
2023/01/29 01:58:57;;;;;;;14.85;9.85;;;;;;;;;;5108511;28;20936;-73
2023/01/29 02:01:28;;;;;;;14.25;10.05;;;;;;;;;;5109970;28;20048;-73
2023/01/29 02:10:13;;;;;;;12.63;9.13;;;;;;;;;;5129628;27;20536;-72
2023/01/29 02:13:05;;;;;;;12.15;9.77;;;;;;;;;;5128829;27;20094;-72
2023/01/29 02:15:36;;;;;;;12.90;9.27;;;;;;;;;;5130454;27;20429;-73
2023/01/29 02:18:07;;;;;;;10.73;9.05;;;;;;;;;;5127916;27;20055;-72
2023/01/29 02:20:41;;;;;;;14.25;9.13;;;;;;;;;;5130499;27;20081;-72
2023/01/29 02:23:26;;;;;;;9.48;8.07;;;;;;;;;;5130044;27;20050;-72
2023/01/29 02:26:20;;;;;;;12.23;9.15;;;;;;;;;;5129934;27;20047;-72
2023/01/29 02:28:54;;;;;;;13.07;9.50;;;;;;;;;;5128250;27;20043;-72
2023/01/29 02:31:54;;;;;;;13.98;9.88;;;;;;;;;;5130213;27;20043;-73
2023/01/29 02:37:32;;;;;;;12.10;8.38;;;;;;;;;;5129233;27;20054;-73
2023/01/29 02:40:30;;;;;;;14.05;8.10;;;;;;;;;;5128798;27;20055;-73
2023/01/29 02:43:34;;;;;;;13.02;7.85;;;;;;;;;;5130597;27;20051;-72
2023/01/29 02:46:09;;;;;;;12.82;7.68;;;;;;;;;;5130380;27;20051;-76
2023/01/29 02:49:04;;;;;;;12.85;8.05;;;;;;;;;;5130070;27;20058;-72
2023/01/29 02:51:44;;;;;;;14.00;7.15;;;;;;;;;;5129954;27;20050;-72
2023/01/29 02:54:30;;;;;;;13.23;8.30;;;;;;;;;;5110899;27;20043;-72
2023/01/29 02:57:15;;;;;;;10.38;7.28;;;;;;;;;;5127743;27;20042;-72
2023/01/29 03:00:15;;;;;;;8.45;7.53;;;;;;;;;;5128318;27;20047;-75
2023/01/29 03:02:48;;;;;;;;;;;;;;;;;;5128136;27;20536;-72
2023/01/29 03:05:28;;;;;;;14.02;6.03;;;;;;;;;;5127813;27;19919;-72
2023/01/29 03:08:09;;;;;;;8.48;6.75;;;;;;;;;;5130133;27;20086;-72
2023/01/29 03:11:01;;;;;;;14.50;6.88;;;;;;;;;;5127520;27;20058;-72
2023/01/29 03:13:41;;;;;;;12.25;6.57;;;;;;;;;;5127887;27;20058;-72
2023/01/29 03:16:18;;;;;;;11.57;6.82;;;;;;;;;;5127732;27;20421;-72
2023/01/29 03:18:58;;;;;;;14.88;6.63;;;;;;;;;;5128972;27;20054;-72
2023/01/29 03:21:53;;;;;;;9.68;6.72;;;;;;;;;;5129857;27;20421;-72
2023/01/29 03:33:27;;;;;;;8.80;6.43;;;;;;;;;;5127916;27;20051;-73
2023/01/29 03:36:05;;;;;;;10.27;7.10;;;;;;;;;;5127439;27;20051;-72
2023/01/29 03:38:35;;;;;;;18.08;7.30;;;;;;;;;;5126989;27;20413;-72
2023/01/29 03:41:28;;;;;;;9.18;6.63;;;;;;;;;;5127009;27;20043;-72
2023/01/29 03:44:07;;;;;;;11.05;7.32;;;;;;;;;;5127618;27;20551;-72
2023/01/29 03:47:03;;;;;;;11.57;7.63;;;;;;;;;;5126578;27;20062;-72
2023/01/29 03:49:59;;;;;;;11.85;8.15;;;;;;;;;;5127849;27;20058;-73
2023/01/29 03:52:42;;;;;;;14.77;7.60;;;;;;;;;;5126065;27;20047;-72
2023/01/29 03:55:42;;;;;;;14.40;7.53;;;;;;;;;;5126967;27;20047;-73
2023/01/29 03:58:34;;;;;;;14.88;7.82;;;;;;;;;;5126963;27;20054;-72
2023/01/29 04:01:25;;;;;;;17.60;9.07;;;;;;;;;;5126632;27;20051;-72
2023/01/29 04:04:25;;;;;;;15.45;8.27;;;;;;;;;;5127104;27;20390;-72
2023/01/29 04:07:03;;;;;;;13.82;8.45;;;;;;;;;;5119131;27;20059;-72
2023/01/29 04:09:37;;;;;;;21.52;8.63;;;;;;;;;;5127341;27;20055;-72
2023/01/29 04:12:11;;;;;;;11.30;8.93;;;;;;;;;;5127106;27;20093;-73
2023/01/29 04:14:45;;;;;;;16.17;8.77;;;;;;;;;;5126517;27;20066;-73
2023/01/29 04:17:24;;;;;;;15.25;8.98;;;;;;;;;;5126581;27;20051;-72
2023/01/29 04:20:17;;;;;;;14.85;9.30;;;;;;;;;;5128375;27;20055;-73
2023/01/29 04:22:50;;;;;;;16.00;9.02;;;;;;;;;;5126121;27;20054;-72
2023/01/29 04:25:25;;;;;;;10.27;8.25;;;;;;;;;;5126480;27;20410;-72
2023/01/29 04:28:25;;;;;;;15.05;8.77;;;;;;;;;;5127967;27;20047;-72
2023/01/29 04:31:02;;;;;;;10.52;7.82;;;;;;;;;;5127046;27;20401;-72
2023/01/29 04:33:38;;;;;;;9.90;8.52;;;;;;;;;;5128482;27;20678;-72
2023/01/29 04:36:08;;;;;;;;;;;;;;;;;;5126849;27;20408;-72
2023/01/29 04:38:50;;;;;;;12.15;7.80;;;;;;;;;;5126119;27;19919;-72
2023/01/29 04:41:43;;;;;;;15.85;7.55;;;;;;;;;;5128549;27;20050;-72
2023/01/29 04:44:25;;;;;;;12.98;7.38;;;;;;;;;;5128116;27;20926;-72
2023/01/29 04:47:27;;;;;;;15.00;7.45;;;;;;;;;;5128176;27;20058;-72
2023/01/29 04:50:14;;;;;;;13.23;7.28;;;;;;;;;;5127426;27;20043;-72
2023/01/29 04:53:17;;;;;;;12.63;7.03;;;;;;;;;;5127988;27;20074;-72
2023/01/29 04:55:58;;;;;;;10.30;7.32;;;;;;;;;;5128061;27;20040;-73
2023/01/29 04:58:32;;;;;;;13.82;7.72;;;;;;;;;;5127528;27;20050;-72
2023/01/29 05:01:07;;;;;;;10.60;7.22;;;;;;;;;;5126185;27;20055;-72
2023/01/29 05:03:42;;;;;;;12.88;7.55;;;;;;;;;;5127261;27;20494;-72
2023/01/29 05:06:15;;;;;;;16.85;7.50;;;;;;;;;;5127882;27;20047;-73
2023/01/29 05:08:46;;;;;;;9.40;7.75;;;;;;;;;;5127268;27;20054;-73
2023/01/29 05:11:20;;;;;;;10.23;7.38;;;;;;;;;;5126319;27;20051;-72
2023/01/29 05:13:54;;;;;;;9.50;7.15;;;;;;;;;;5125920;28;20497;-71
2023/01/29 05:16:28;;;;;;;13.23;7.68;;;;;;;;;;5127567;28;20054;-72
2023/01/29 05:18:59;;;;;;;16.52;7.53;;;;;;;;;;5127635;28;20770;-72
2023/01/29 05:21:32;;;;;;;15.60;7.68;;;;;;;;;;5128039;27;20130;-72
2023/01/29 05:24:20;;;;;;;8.40;6.95;;;;;;;;;;5127339;28;20389;-73
2023/01/29 05:29:48;;;;;;;15.57;7.28;;;;;;;;;;5127604;28;20047;-72
2023/01/29 05:32:19;;;;;;;14.73;7.70;;;;;;;;;;5127113;28;20046;-73
2023/01/29 05:34:49;;;;;;;14.05;7.65;;;;;;;;;;5127279;28;20048;-73
2023/01/29 05:37:19;;;;;;;11.63;7.40;;;;;;;;;;5127240;28;20266;-72
2023/01/29 05:39:49;;;;;;;13.77;7.75;;;;;;;;;;5126929;28;20043;-72
2023/01/29 05:42:19;;;;;;;11.07;8.20;;;;;;;;;;5127878;28;20803;-73
2023/01/29 05:44:50;;;;;;;11.55;7.75;;;;;;;;;;5127262;28;20043;-73
2023/01/29 05:47:20;;;;;;;8.73;7.82;;;;;;;;;;5125306;28;20039;-72
2023/01/29 05:49:51;;;;;;;11.70;7.70;;;;;;;;;;5127391;28;20405;-72
2023/01/29 05:52:21;;;;;;;11.85;8.60;;;;;;;;;;5127554;28;20413;-73
2023/01/29 05:54:51;;;;;;;13.02;8.07;;;;;;;;;;5127055;28;20047;-72
2023/01/29 05:57:21;;;;;;;10.73;8.18;;;;;;;;;;5126972;28;20043;-71
2023/01/29 05:59:52;;;;;;;12.50;7.80;;;;;;;;;;5127171;28;20043;-72
2023/01/29 06:02:23;;;;;;;12.60;7.88;;;;;;;;;;5127165;28;20429;-72
2023/01/29 06:04:53;;;;;;;13.63;7.13;;;;;;;;;;5127112;28;20058;-72
2023/01/29 06:07:23;;;;;;;15.55;7.55;;;;;;;;;;5127070;28;20417;-72
2023/01/29 06:09:54;;;;;;;9.75;7.55;;;;;;;;;;5127008;27;20047;-72
2023/01/29 06:12:25;;;;;;;8.55;6.90;;;;;;;;;;5130680;27;20047;-72
2023/01/29 06:14:56;;;;;;;10.68;7.45;;;;;;;;;;5130683;27;20047;-72
2023/01/29 06:17:26;;;;;;;13.75;7.72;;;;;;;;;;5130524;27;20062;-73
2023/01/29 06:19:56;;;;;;;8.68;7.28;;;;;;;;;;5130502;27;20043;-73
2023/01/29 06:22:26;;;;;;;11.90;7.47;;;;;;;;;;5129418;27;20046;-72
2023/01/29 06:24:56;;;;;;;11.93;7.43;;;;;;;;;;5130540;27;20604;-72
2023/01/29 06:27:26;;;;;;;17.00;7.50;;;;;;;;;;5129542;27;20513;-72
2023/01/29 06:29:57;;;;;;;18.52;8.00;;;;;;;;;;5130328;27;20050;-72
2023/01/29 06:32:29;;;;;;;11.20;7.72;;;;;;;;;;5130444;27;20051;-72
2023/01/29 06:35:00;;;;;;;18.92;7.60;;;;;;;;;;5130357;27;20058;-73
2023/01/29 06:37:29;;;;;;;15.82;7.40;;;;;;;;;;5130043;27;20515;-73
2023/01/29 06:40:01;;;;;;;13.55;7.43;;;;;;;;;;5130747;27;20050;-72
2023/01/29 06:42:35;;;;;;;10.68;7.78;;;;;;;;;;5130580;27;20047;-72
2023/01/29 06:45:07;;;;;;;10.95;7.13;;;;;;;;;;5130066;27;20050;-72
2023/01/29 06:47:37;;;;;;;11.32;6.90;;;;;;;;;;5130589;27;20050;-73
2023/01/29 06:50:08;;;;;;;15.50;6.93;;;;;;;;;;5129757;27;20047;-72
2023/01/29 06:52:39;;;;;;;14.80;7.13;;;;;;;;;;5128067;27;20445;-72
2023/01/29 06:55:09;;;;;;;13.18;6.88;;;;;;;;;;5130057;27;20050;-72
2023/01/29 06:57:40;;;;;;;14.38;7.28;;;;;;;;;;5130099;27;20051;-72
2023/01/29 07:00:10;;;;;;;12.52;6.93;;;;;;;;;;5130129;27;20046;-72
2023/01/29 07:02:42;;;;;;;12.85;6.85;;;;;;;;;;5129796;27;20062;-73
2023/01/29 07:05:13;;;;;;;12.90;7.90;;;;;;;;;;5130105;27;20050;-73
2023/01/29 07:07:43;;;;;;;9.73;7.68;;;;;;;;;;5130034;27;20047;-73
2023/01/29 07:10:13;;;;;;;15.18;7.57;;;;;;;;;;5129887;27;20043;-72
2023/01/29 07:12:45;;;;;;;10.38;6.97;;;;;;;;;;5130311;27;20054;-72
2023/01/29 07:15:19;;;;;;;15.10;7.25;;;;;;;;;;5129815;27;20051;-73
2023/01/29 07:18:15;;;;;;;15.45;7.05;;;;;;;;;;5129671;27;20051;-72
2023/01/29 07:20:45;;;;;;;14.13;7.13;;;;;;;;;;5126872;27;20074;-73
2023/01/29 07:23:16;;;;;;;12.77;7.45;;;;;;;;;;5128145;27;20047;-73
2023/01/29 07:25:50;;;;;;;18.63;7.50;;;;;;;;;;5129020;27;20065;-73
2023/01/29 07:28:21;;;;;;;14.02;7.28;;;;;;;;;;5129142;27;20046;-73
2023/01/29 07:30:58;;;;;;;12.23;7.68;;;;;;;;;;5127711;27;20051;-73
2023/01/29 07:33:30;;;;;;;13.82;7.80;;;;;;;;;;5129643;27;20039;-73
2023/01/29 07:36:00;;;;;;;10.20;8.05;;;;;;;;;;5129416;27;20062;-73
2023/01/29 07:38:30;;;;;;;17.02;7.00;;;;;;;;;;5129400;27;20054;-73
2023/01/29 07:41:00;;;;;;;10.07;7.50;;;;;;;;;;5128759;27;20043;-73
2023/01/29 07:43:32;;;;;;;17.40;7.90;;;;;;;;;;5127477;27;20051;-73
2023/01/29 07:46:03;;;;;;;12.20;7.57;;;;;;;;;;5128732;27;20047;-73
2023/01/29 07:48:35;;;;;;;17.27;7.88;;;;;;;;;;5128898;27;20051;-72
2023/01/29 07:51:06;;;;;;;14.45;8.18;;;;;;;;;;5127201;27;20062;-72
2023/01/29 07:53:36;;;;;;;13.75;8.35;;;;;;;;;;5129476;27;20047;-73
2023/01/29 07:56:07;;;;;;;17.10;8.65;;;;;;;;;;5128833;27;20043;-72
2023/01/29 07:58:38;;;;;;;12.90;7.80;;;;;;;;;;5129093;27;20493;-73
2023/01/29 08:01:08;;;;;;;13.05;7.63;;;;;;;;;;5129093;27;20047;-72
2023/01/29 08:03:38;;;;;;;14.82;8.13;;;;;;;;;;5127139;27;20051;-73
2023/01/29 08:06:09;;;;;;;21.00;8.75;;;;;;;;;;5128330;27;20047;-72
2023/01/29 08:08:40;;;;;;;17.65;8.30;;;;;;;;;;5128089;27;20043;-73
2023/01/29 08:11:10;;;;;;;19.20;8.02;;;;;;;;;;5128642;27;20089;-72
2023/01/29 08:13:40;;;;;;;14.48;8.43;;;;;;;;;;5128126;27;20378;-72
2023/01/29 08:16:10;;;;;;;14.15;8.68;;;;;;;;;;5128282;27;20043;-72
2023/01/29 08:18:46;;;;;;;17.25;9.57;;;;;;;;;;5127309;27;20051;-72
2023/01/29 08:21:16;;;;;;;17.77;8.90;;;;;;;;;;5128325;27;20062;-73
2023/01/29 08:23:46;;;;;;;14.90;9.32;;;;;;;;;;5128384;27;20050;-72
2023/01/29 08:26:17;;;;;;;14.20;9.55;;;;;;;;;;5128208;27;20047;-73
2023/01/29 08:28:48;;;;;;;19.10;8.65;;;;;;;;;;5128255;27;20050;-72
2023/01/29 08:31:20;;;;;;;14.13;9.30;;;;;;;;;;5127403;27;20513;-73
2023/01/29 08:33:52;;;;;;;11.93;8.55;;;;;;;;;;5127256;27;20372;-73
2023/01/29 08:36:22;;;;;;;18.05;8.60;;;;;;;;;;5125696;27;20047;-72
2023/01/29 08:38:53;;;;;;;13.40;9.45;;;;;;;;;;5127878;27;20047;-73
2023/01/29 08:41:24;;;;;;;13.65;10.90;;;;;;;;;;5127605;27;20046;-72
2023/01/29 08:43:56;;;;;;;19.75;9.93;;;;;;;;;;5128046;27;20047;-73
2023/01/29 08:46:26;;;;;;;14.98;10.45;;;;;;;;;;5127865;27;20039;-73
2023/01/29 08:48:57;;;;;;;20.23;11.00;;;;;;;;;;5127703;27;20057;-72
2023/01/29 08:51:28;;;;;;;24.50;12.38;;;;;;;;;;5126773;27;20054;-72
2023/01/29 08:53:58;;;;;;;15.18;11.85;;;;;;;;;;5127977;27;20071;-72
2023/01/29 08:56:28;;;;;;;20.52;11.68;;;;;;;;;;5127685;27;20046;-72
2023/01/29 08:58:59;;;;;;;16.08;12.15;;;;;;;;;;5126680;27;21275;-72
2023/01/29 09:01:30;;;;;;;19.45;12.25;;;;;;;;;;5127792;27;20050;-73
2023/01/29 09:04:00;;;;;;;21.90;13.65;;;;;;;;;;5126547;27;20050;-73
2023/01/29 09:06:30;;;;;;;24.63;13.15;;;;;;;;;;5127527;27;20405;-72
2023/01/29 09:09:02;;;;;;;19.05;13.23;;;;;;;;;;5127060;27;20054;-73
2023/01/29 09:11:33;;;;;;;25.75;13.43;;;;;;;;;;5127468;27;20047;-72
2023/01/29 09:14:03;;;;;;;19.90;12.52;;;;;;;;;;5127785;27;20498;-73
2023/01/29 09:16:34;;;;;;;25.13;13.60;;;;;;;;;;5127473;28;20043;-72
2023/01/29 09:19:05;;;;;;;17.30;12.90;;;;;;;;;;5126941;27;20058;-72
2023/01/29 09:21:36;;;;;;;18.17;13.85;;;;;;;;;;5127228;28;20047;-73
2023/01/29 09:24:07;;;;;;;21.50;14.15;;;;;;;;;;5127610;28;20513;-73
2023/01/29 09:26:38;;;;;;;22.00;14.63;;;;;;;;;;5127832;28;20051;-73
2023/01/29 09:29:10;;;;;;;23.92;15.45;;;;;;;;;;5127167;28;20054;-73
2023/01/29 09:31:41;;;;;;;26.77;16.00;;;;;;;;;;5125898;28;20054;-73
2023/01/29 09:34:11;;;;;;;23.25;17.00;;;;;;;;;;5127030;28;20035;-73
2023/01/29 09:36:43;;;;;;;27.80;18.17;;;;;;;;;;5127723;28;20039;-73
2023/01/29 09:39:13;;;;;;;31.50;18.42;;;;;;;;;;5127218;28;20047;-73
2023/01/29 09:42:03;;;;;;;28.83;18.23;;;;;;;;;;5127073;28;20051;-73
2023/01/29 09:44:52;;;;;;;32.28;18.02;;;;;;;;;;5127749;27;20031;-73
2023/01/29 09:47:25;;;;;;;31.13;18.48;;;;;;;;;;5132238;27;20050;-73
2023/01/29 09:50:04;;;;;;;27.23;17.95;;;;;;;;;;5131797;27;20047;-74
2023/01/29 09:53:28;;;;;;;30.15;17.98;;;;;;;;;;5130094;27;20046;-73
2023/01/29 09:56:05;;;;;;;23.67;17.33;;;;;;;;;;5130828;27;20051;-73
2023/01/29 09:58:38;;;;;;;20.70;15.55;;;;;;;;;;5131028;27;20402;-73
2023/01/29 10:01:17;;;;;;;24.08;16.98;;;;;;;;;;5128850;27;20417;-73
2023/01/29 10:04:06;;;;;;;25.17;15.88;;;;;;;;;;5131193;27;20058;-73
2023/01/29 10:06:43;;;;;;;23.98;14.60;;;;;;;;;;5128509;27;20513;-73
2023/01/29 10:10:06;;;;;;;21.75;13.90;;;;;;;;;;5131372;27;20050;-73
2023/01/29 10:13:10;;;;;;;18.65;13.88;;;;;;;;;;5118198;27;20055;-73
2023/01/29 10:16:00;;;;;;;19.25;13.63;;;;;;;;;;5130900;27;20047;-73
2023/01/29 10:18:52;;;;;;;23.05;13.45;;;;;;;;;;5130955;27;20455;-73
2023/01/29 10:21:31;;;;;;;17.33;12.77;;;;;;;;;;5130871;27;20054;-73
2023/01/29 10:24:20;;;;;;;18.70;13.00;;;;;;;;;;5130347;27;20043;-73
2023/01/29 10:26:52;;;;;;;18.77;12.98;;;;;;;;;;5130110;27;20042;-72
2023/01/29 10:29:26;;;;;;;21.35;13.43;;;;;;;;;;5128848;27;20051;-73
2023/01/29 10:32:04;;;;;;;22.50;12.07;;;;;;;;;;5130435;27;20058;-73
2023/01/29 10:34:39;;;;;;;17.02;11.95;;;;;;;;;;5130567;27;20655;-73
2023/01/29 10:37:23;;;;;;;15.85;11.07;;;;;;;;;;5128092;27;20043;-72
2023/01/29 10:39:53;;;;;;;16.35;11.85;;;;;;;;;;5130231;27;20059;-73
2023/01/29 10:42:30;;;;;;;21.45;12.30;;;;;;;;;;5130036;27;20058;-73
2023/01/29 10:45:16;;;;;;;17.15;12.40;;;;;;;;;;5129422;27;20055;-73
2023/01/29 10:48:06;;;;;;;22.00;12.98;;;;;;;;;;5130392;27;20397;-73
2023/01/29 10:50:52;;;;;;;18.48;12.07;;;;;;;;;;5130248;27;20054;-72
2023/01/29 10:53:38;;;;;;;20.50;11.98;;;;;;;;;;5130162;27;20050;-72
2023/01/29 10:56:28;;;;;;;25.23;13.05;;;;;;;;;;5129743;27;20501;-74
2023/01/29 10:59:06;;;;;;;15.15;11.32;;;;;;;;;;5130394;27;20051;-73
2023/01/29 11:01:40;;;;;;;16.73;11.02;;;;;;;;;;5129324;27;20051;-73
2023/01/29 11:04:12;;;;;;;13.95;11.88;;;;;;;;;;5130031;27;20054;-73
2023/01/29 11:06:43;;;;;;;16.67;12.15;;;;;;;;;;5128313;27;20058;-73
2023/01/29 11:09:13;;;;;;;15.05;11.10;;;;;;;;;;5129766;27;20047;-73
2023/01/29 11:11:47;;;;;;;16.67;10.82;;;;;;;;;;5127905;27;20054;-73
2023/01/29 11:14:27;;;;;;;15.80;11.55;;;;;;;;;;5129370;27;21164;-74
2023/01/29 11:16:58;;;;;;;17.30;10.43;;;;;;;;;;5127837;27;20390;-74
2023/01/29 11:19:40;;;;;;;15.48;10.32;;;;;;;;;;5129656;27;20051;-73
2023/01/29 11:22:14;;;;;;;17.95;10.38;;;;;;;;;;5129491;27;20031;-73
2023/01/29 11:24:47;;;;;;;13.02;9.88;;;;;;;;;;5129420;27;20450;-74
2023/01/29 11:27:28;;;;;;;15.32;10.93;;;;;;;;;;5129020;27;20396;-74
2023/01/29 11:29:58;;;;;;;;;;;;;;;;;;5130065;27;20070;-74
2023/01/29 11:32:32;;;;;;;14.60;9.43;;;;;;;;;;5129345;27;19923;-75
2023/01/29 11:35:15;;;;;;;14.48;10.63;;;;;;;;;;5128919;27;20502;-74
2023/01/29 11:37:46;;;;;;;15.40;9.05;;;;;;;;;;5129601;27;20481;-74
2023/01/29 11:40:37;;;;;;;14.20;10.43;;;;;;;;;;5129159;27;20393;-74
2023/01/29 11:43:30;;;;;;;16.20;10.15;;;;;;;;;;5129275;27;20047;-74
2023/01/29 11:46:06;;;;;;;15.82;9.70;;;;;;;;;;5127260;27;20047;-73
2023/01/29 11:48:53;;;;;;;16.30;9.50;;;;;;;;;;5128993;27;20043;-73
2023/01/29 11:51:36;;;;;;;12.25;8.82;;;;;;;;;;5128518;27;20043;-74
2023/01/29 11:54:18;;;;;;;13.40;9.20;;;;;;;;;;5128672;27;20039;-73
2023/01/29 11:56:50;;;;;;;11.90;9.63;;;;;;;;;;5128818;27;20152;-73
2023/01/29 11:59:41;;;;;;;15.55;9.60;;;;;;;;;;5127884;27;20050;-74
2023/01/29 12:02:21;;;;;;;12.07;9.13;;;;;;;;;;5128734;27;20047;-73
2023/01/29 12:04:57;;;;;;;12.13;9.32;;;;;;;;;;5128778;27;20039;-74
2023/01/29 12:07:30;;;;;;;15.50;9.55;;;;;;;;;;5127858;27;20517;-76
2023/01/29 12:10:02;;;;;;;14.63;8.52;;;;;;;;;;5127558;27;20074;-76
2023/01/29 12:12:41;;;;;;;14.35;9.90;;;;;;;;;;5127791;27;20383;-74
2023/01/29 12:15:18;;;;;;;12.88;8.93;;;;;;;;;;5128087;27;20048;-75
2023/01/29 12:17:57;;;;;;;10.75;8.10;;;;;;;;;;5128585;27;20378;-75
2023/01/29 12:20:41;;;;;;;13.65;10.73;;;;;;;;;;5128056;27;20043;-74
2023/01/29 12:23:25;;;;;;;20.65;10.95;;;;;;;;;;5129377;27;20050;-73
2023/01/29 12:26:00;;;;;;;15.40;11.32;;;;;;;;;;5128333;27;20051;-73
2023/01/29 12:28:35;;;;;;;16.58;11.05;;;;;;;;;;5127422;27;20530;-74
2023/01/29 12:31:23;;;;;;;16.95;9.80;;;;;;;;;;5126340;27;20066;-74
2023/01/29 12:34:15;;;;;;;17.42;11.20;;;;;;;;;;5128308;27;20043;-75
2023/01/29 12:37:00;;;;;;;16.90;9.75;;;;;;;;;;5128160;27;20047;-74
2023/01/29 12:39:31;;;;;;;14.32;9.45;;;;;;;;;;5126690;27;20043;-74
2023/01/29 12:42:12;;;;;;;13.35;10.00;;;;;;;;;;5128066;27;20385;-74
2023/01/29 12:44:51;;;;;;;19.35;10.13;;;;;;;;;;5128304;27;20043;-73
2023/01/29 12:47:31;;;;;;;16.52;10.68;;;;;;;;;;5119574;27;20051;-73
2023/01/29 12:50:17;;;;;;;16.20;9.73;;;;;;;;;;5107174;28;20055;-74
2023/01/29 12:53:01;;;;;;;13.45;9.48;;;;;;;;;;5106502;28;20046;-75
2023/01/29 12:55:43;;;;;;;14.65;9.35;;;;;;;;;;5105389;28;20832;-75
2023/01/29 12:58:20;;;;;;;15.05;8.38;;;;;;;;;;5106719;28;20125;-75
2023/01/29 13:00:57;;;;;;;11.40;9.55;;;;;;;;;;5107095;28;20051;-75
2023/01/29 13:03:34;;;;;;;12.55;8.93;;;;;;;;;;5105265;28;20505;-76
2023/01/29 13:06:14;;;;;;;11.20;8.60;;;;;;;;;;5106584;28;20039;-75
2023/01/29 13:09:07;;;;;;;12.45;8.15;;;;;;;;;;5107264;28;20662;-74
2023/01/29 13:11:40;;;;;;;;;;;;;;;;;;5107293;28;20048;-74
2023/01/29 13:14:30;;;;;;;11.40;8.55;;;;;;;;;;5107012;28;19923;-75
2023/01/29 13:17:32;;;;;;;17.33;7.93;;;;;;;;;;5106910;28;20048;-76
2023/01/29 13:20:24;;;;;;;15.68;8.15;;;;;;;;;;5104541;28;20058;-74
2023/01/29 13:23:12;;;;;;;13.75;9.10;;;;;;;;;;5107152;28;20055;-77
2023/01/29 13:25:43;;;;;;;13.43;9.48;;;;;;;;;;5106084;28;20048;-74
2023/01/29 13:28:21;;;;;;;11.65;8.68;;;;;;;;;;5107356;28;20046;-75
2023/01/29 13:31:13;;;;;;;12.13;8.23;;;;;;;;;;5107330;28;20051;-74
2023/01/29 13:33:51;;;;;;;8.43;7.10;;;;;;;;;;5106806;28;20363;-75
2023/01/29 13:36:27;;;;;;;10.35;7.10;;;;;;;;;;5106466;28;20502;-74
2023/01/29 13:39:15;;;;;;;13.48;7.60;;;;;;;;;;5104981;28;20063;-75
2023/01/29 13:41:45;;;;;;;13.40;8.32;;;;;;;;;;5107294;28;20043;-74
2023/01/29 13:44:39;;;;;;;11.82;8.35;;;;;;;;;;5106174;28;20043;-74
2023/01/29 13:47:20;;;;;;;12.13;6.93;;;;;;;;;;5105741;28;20055;-75
2023/01/29 13:50:00;;;;;;;12.65;7.57;;;;;;;;;;5106356;28;20047;-74
2023/01/29 13:52:56;;;;;;;10.45;8.27;;;;;;;;;;5106580;28;20052;-74
2023/01/29 13:55:31;;;;;;;12.55;7.43;;;;;;;;;;5106042;28;20043;-75
2023/01/29 13:58:04;;;;;;;12.45;8.05;;;;;;;;;;5106633;28;20564;-73
2023/01/29 14:00:34;;;;;;;11.82;5.72;;;;;;;;;;5105109;28;20051;-75
2023/01/29 14:03:10;;;;;;;12.82;7.57;;;;;;;;;;5105556;28;20434;-74
2023/01/29 14:05:58;;;;;;;16.63;11.20;;;;;;;;;;5104921;28;20052;-76
2023/01/29 14:08:36;;;;;;;11.90;9.35;;;;;;;;;;5104946;28;20094;-74
2023/01/29 14:11:16;;;;;;;13.90;7.97;;;;;;;;;;5105746;28;20054;-73
2023/01/29 14:13:48;;;;;;;10.57;7.57;;;;;;;;;;5105900;28;20044;-74
2023/01/29 14:16:36;;;;;;;13.05;7.85;;;;;;;;;;5105053;28;20225;-74
2023/01/29 14:19:21;;;;;;;14.20;7.63;;;;;;;;;;5106274;28;20422;-79
2023/01/29 14:21:52;;;;;;;9.15;6.65;;;;;;;;;;5104575;28;20044;-76
2023/01/29 14:24:27;;;;;;;10.25;5.53;;;;;;;;;;5106517;28;20059;-74
2023/01/29 14:26:58;;;;;;;7.80;4.88;;;;;;;;;;5106081;28;20051;-74
2023/01/29 14:29:30;;;;;;;7.40;5.07;;;;;;;;;;5106621;28;20048;-76
2023/01/29 14:32:06;;;;;;;9.20;4.70;;;;;;;;;;5107306;28;20505;-75
2023/01/29 14:34:47;;;;;;;9.02;3.63;;;;;;;;;;5110029;28;20035;-72
2023/01/29 14:37:20;;;;;;;5.50;3.13;;;;;;;;;;5110333;28;21146;-75
2023/01/29 14:39:54;;;;;;;5.43;2.83;;;;;;;;;;5109735;28;20043;-75
2023/01/29 14:43:18;;;;;;;6.78;2.50;;;;;;;;;;5110200;28;20035;-74
2023/01/29 14:45:54;;;;;;;4.47;2.72;;;;;;;;;;5109271;28;20043;-76
2023/01/29 14:48:37;;;;;;;4.97;2.53;;;;;;;;;;5106864;28;20055;-75
2023/01/29 14:51:16;;;;;;;4.82;2.45;;;;;;;;;;5108558;28;20074;-73
2023/01/29 14:53:49;;;;;;;7.93;2.55;;;;;;;;;;5109623;28;20043;-74
2023/01/29 14:56:40;;;;;;;7.03;2.60;;;;;;;;;;5108219;28;20066;-73
2023/01/29 14:59:18;;;;;;;7.18;2.65;;;;;;;;;;5109625;28;20421;-73
2023/01/29 15:01:57;;;;;;;7.50;2.05;;;;;;;;;;5109154;28;20043;-74
2023/01/29 15:04:53;;;;;;;7.60;2.55;;;;;;;;;;5109181;28;20040;-74
2023/01/29 15:08:16;;;;;;;4.30;2.13;;;;;;;;;;5100862;28;20510;-74
2023/01/29 15:11:32;;;;;;;6.50;2.85;;;;;;;;;;5070511;28;20081;-75
2023/01/29 15:14:02;;;;;;;6.07;2.72;;;;;;;;;;5109367;28;20498;-75
2023/01/29 15:16:54;;;;;;;5.43;2.40;;;;;;;;;;5068883;28;20056;-76
2023/01/29 15:19:46;;;;;;;6.72;2.55;;;;;;;;;;5109547;28;20054;-74
2023/01/29 15:22:24;;;;;;;5.40;2.03;;;;;;;;;;5108856;28;20059;-74
2023/01/29 15:25:17;;;;;;;6.32;2.38;;;;;;;;;;5108832;28;20046;-74
2023/01/29 15:27:50;;;;;;;3.67;2.15;;;;;;;;;;5108065;28;20051;-73
2023/01/29 15:30:32;;;;;;;3.75;1.92;;;;;;;;;;5109230;28;20533;-73
2023/01/29 15:33:03;;;;;;;5.75;1.98;;;;;;;;;;5108569;28;20043;-74
2023/01/29 15:35:37;;;;;;;4.13;1.85;;;;;;;;;;5107866;28;20046;-73
2023/01/29 15:38:20;;;;;;;6.18;2.03;;;;;;;;;;5105739;28;20040;-74
2023/01/29 15:40:53;;;;;;;5.40;2.15;;;;;;;;;;5108441;28;20047;-73
2023/01/29 15:43:24;;;;;;;3.35;1.85;;;;;;;;;;5109061;28;20048;-74
2023/01/29 15:45:57;;;;;;;4.43;1.73;;;;;;;;;;5108664;28;20047;-73
2023/01/29 15:48:48;;;;;;;7.60;1.73;;;;;;;;;;5108201;28;20044;-75
2023/01/29 15:51:21;;;;;;;4.07;1.50;;;;;;;;;;5106744;28;20840;-74
2023/01/29 15:54:03;;;;;;;6.25;1.92;;;;;;;;;;5105574;28;20058;-75
2023/01/29 15:56:39;;;;;;;3.50;1.75;;;;;;;;;;5106390;28;20055;-74
2023/01/29 15:59:17;;;;;;;4.50;2.00;;;;;;;;;;5106419;28;20046;-76
2023/01/29 16:01:48;;;;;;;7.38;2.00;;;;;;;;;;5106564;28;20052;-74
2023/01/29 16:04:27;;;;;;;5.03;2.10;;;;;;;;;;5107125;28;20047;-73
2023/01/29 16:07:00;;;;;;;6.40;2.30;;;;;;;;;;5105598;28;20039;-74